createdAt,value
2019-01-14T00:00:25.070Z,7.20
2019-01-14T00:02:53.840Z,7.20
2019-01-14T00:05:22.261Z,7.20
2019-01-14T00:07:50.760Z,7.10
2019-01-14T00:10:19.224Z,7.20
2019-01-14T00:12:47.658Z,7.20
2019-01-14T00:15:16.254Z,7.00
2019-01-14T00:17:44.769Z,6.70
2019-01-14T00:20:14.932Z,6.40
2019-01-14T00:22:43.428Z,6.20
2019-01-14T00:25:12.026Z,6.20
2019-01-14T00:27:40.466Z,6.20
2019-01-14T00:30:12.019Z,6.10
2019-01-14T00:32:40.451Z,6.10
2019-01-14T00:35:09.085Z,6.00
2019-01-14T00:37:37.638Z,5.90
2019-01-14T00:40:09.419Z,5.90
2019-01-14T00:42:37.946Z,5.90
2019-01-14T00:45:07.416Z,5.90
2019-01-14T00:47:36.743Z,5.80
2019-01-14T00:50:08.423Z,5.70
2019-01-14T00:52:37.041Z,5.70
2019-01-14T00:55:06.627Z,5.60
2019-01-14T00:57:35.070Z,5.50
2019-01-14T01:00:09.135Z,5.60
2019-01-14T01:02:37.665Z,5.50
2019-01-14T01:05:06.840Z,5.60
2019-01-14T01:07:35.663Z,5.60
2019-01-14T01:10:07.347Z,5.50
2019-01-14T01:12:35.867Z,5.50
2019-01-14T01:15:06.049Z,5.50
2019-01-14T01:17:34.509Z,5.50
2019-01-14T01:20:03.180Z,5.40
2019-01-14T01:22:31.630Z,5.40
2019-01-14T01:25:00.057Z,5.40
2019-01-14T01:27:28.595Z,5.50
2019-01-14T01:29:59.835Z,5.50
2019-01-14T01:32:28.289Z,5.50
2019-01-14T01:34:56.920Z,5.60
2019-01-14T01:37:25.373Z,5.50
2019-01-14T01:39:53.813Z,5.50
2019-01-14T01:42:22.304Z,5.50
2019-01-14T01:44:50.729Z,5.40
2019-01-14T01:47:19.309Z,5.40
2019-01-14T01:49:47.762Z,5.40
2019-01-14T01:52:16.214Z,5.30
2019-01-14T01:54:44.654Z,5.30
2019-01-14T01:57:13.104Z,5.20
2019-01-14T01:59:41.692Z,5.20
2019-01-14T02:02:10.214Z,5.20
2019-01-14T02:04:38.654Z,5.10
2019-01-14T02:07:07.095Z,5.10
2019-01-14T02:09:35.530Z,5.00
2019-01-14T02:12:04.039Z,5.00
2019-01-14T02:14:32.642Z,5.00
2019-01-14T02:17:01.158Z,5.00
2019-01-14T02:19:29.606Z,4.90
2019-01-14T02:21:58.050Z,4.90
2019-01-14T02:24:28.101Z,5.00
2019-01-14T02:26:56.542Z,5.00
2019-01-14T02:29:24.998Z,4.90
2019-01-14T02:31:53.514Z,5.00
2019-01-14T02:34:21.974Z,5.00
2019-01-14T02:36:50.428Z,5.00
2019-01-14T02:39:18.915Z,5.00
2019-01-14T02:41:47.414Z,5.00
2019-01-14T02:44:15.958Z,4.90
2019-01-14T02:46:44.400Z,4.90
2019-01-14T02:49:12.855Z,4.90
2019-01-14T02:51:41.286Z,4.80
2019-01-14T02:54:09.760Z,4.80
2019-01-14T02:56:38.198Z,4.80
2019-01-14T02:59:06.742Z,4.70
2019-01-14T03:01:35.182Z,4.60
2019-01-14T03:04:03.707Z,4.60
2019-01-14T03:06:32.407Z,4.60
2019-01-14T03:09:00.877Z,4.60
2019-01-14T03:11:29.326Z,4.60
2019-01-14T03:13:57.854Z,4.50
2019-01-14T03:16:26.289Z,4.60
2019-01-14T03:18:54.753Z,4.60
2019-01-14T03:21:23.191Z,4.50
2019-01-14T03:23:51.649Z,4.50
2019-01-14T03:26:20.109Z,4.40
2019-01-14T03:28:48.639Z,4.40
2019-01-14T03:31:17.090Z,4.40
2019-01-14T03:33:45.620Z,4.40
2019-01-14T03:36:14.117Z,4.40
2019-01-14T03:38:42.637Z,4.40
2019-01-14T03:41:11.085Z,4.50
2019-01-14T03:43:39.631Z,4.40
2019-01-14T03:46:08.063Z,4.40
2019-01-14T03:48:38.113Z,4.40
2019-01-14T03:51:06.574Z,4.40
2019-01-14T03:53:36.333Z,4.30
2019-01-14T03:56:04.855Z,4.30
2019-01-14T03:58:33.312Z,4.30
2019-01-14T04:01:01.782Z,4.20
2019-01-14T04:03:30.220Z,4.20
2019-01-14T04:05:58.686Z,4.20
2019-01-14T04:08:27.205Z,4.10
2019-01-14T04:10:55.678Z,4.00
2019-01-14T04:13:24.378Z,4.00
2019-01-14T04:15:52.867Z,4.00
2019-01-14T04:18:21.380Z,4.10
2019-01-14T04:20:49.910Z,4.10
2019-01-14T04:23:18.390Z,4.10
2019-01-14T04:25:46.876Z,4.10
2019-01-14T04:28:15.391Z,4.00
2019-01-14T04:30:43.862Z,4.00
2019-01-14T04:33:12.294Z,4.00
2019-01-14T04:35:40.763Z,3.90
2019-01-14T04:38:09.415Z,3.90
2019-01-14T04:40:37.876Z,3.70
2019-01-14T04:43:06.313Z,3.80
2019-01-14T04:45:34.794Z,3.70
2019-01-14T04:48:03.310Z,3.70
2019-01-14T04:50:31.830Z,3.80
2019-01-14T04:53:00.410Z,3.60
2019-01-14T04:55:28.871Z,3.60
2019-01-14T04:57:57.336Z,3.70
2019-01-14T05:00:25.988Z,3.60
2019-01-14T05:02:54.504Z,3.70
2019-01-14T05:05:23.192Z,3.60
2019-01-14T05:07:51.810Z,3.60
2019-01-14T05:10:21.436Z,3.60
2019-01-14T05:12:50.071Z,3.60
2019-01-14T05:15:18.655Z,3.40
2019-01-14T05:17:47.096Z,3.50
2019-01-14T05:20:23.527Z,3.60
2019-01-14T05:22:52.631Z,3.60
2019-01-14T05:25:21.143Z,3.60
2019-01-14T05:27:49.954Z,3.60
2019-01-14T05:30:20.052Z,3.70
2019-01-14T05:32:48.641Z,3.80
2019-01-14T05:35:17.259Z,3.80
2019-01-14T05:37:46.015Z,3.70
2019-01-14T05:40:22.942Z,3.60
2019-01-14T05:42:51.449Z,3.50
2019-01-14T05:45:19.962Z,3.50
2019-01-14T05:47:48.421Z,3.50
2019-01-14T05:50:17.099Z,3.50
2019-01-14T05:52:45.703Z,3.50
2019-01-14T05:55:15.380Z,3.40
2019-01-14T05:57:44.021Z,3.50
2019-01-14T06:00:18.154Z,3.50
2019-01-14T06:02:46.649Z,3.40
2019-01-14T06:05:15.322Z,3.60
2019-01-14T06:07:45.004Z,3.50
2019-01-14T06:10:13.781Z,3.60
2019-01-14T06:12:42.449Z,3.60
2019-01-14T06:15:13.444Z,3.50
2019-01-14T06:17:41.874Z,3.50
2019-01-14T06:20:14.007Z,3.50
2019-01-14T06:22:42.526Z,3.50
2019-01-14T06:25:13.452Z,3.40
2019-01-14T06:27:41.892Z,3.60
2019-01-14T06:30:22.014Z,3.60
2019-01-14T06:32:50.635Z,3.60
2019-01-14T06:35:19.442Z,3.70
2019-01-14T06:37:52.371Z,3.70
2019-01-14T06:40:19.934Z,3.80
2019-01-14T06:42:48.614Z,3.70
2019-01-14T06:45:17.520Z,3.80
2019-01-14T06:47:46.022Z,3.80
2019-01-14T06:50:16.598Z,3.90
2019-01-14T06:52:45.274Z,4.00
2019-01-14T06:55:13.961Z,4.00
2019-01-14T06:57:42.560Z,4.10
2019-01-14T07:00:14.102Z,4.10
2019-01-14T07:02:42.619Z,4.20
2019-01-14T07:05:11.306Z,4.20
2019-01-14T07:07:39.939Z,4.30
2019-01-14T07:10:11.470Z,4.30
2019-01-14T07:12:40.301Z,4.40
2019-01-14T07:15:09.597Z,4.40
2019-01-14T07:17:38.171Z,4.40
2019-01-14T07:20:10.096Z,4.50
2019-01-14T07:22:38.599Z,4.50
2019-01-14T07:25:08.787Z,4.50
2019-01-14T07:27:37.559Z,4.50
2019-01-14T07:30:09.312Z,4.40
2019-01-14T07:32:37.757Z,4.40
2019-01-14T07:35:06.567Z,4.40
2019-01-14T07:37:35.147Z,4.40
2019-01-14T07:40:06.096Z,4.40
2019-01-14T07:42:34.537Z,4.50
2019-01-14T07:45:03.231Z,4.70
2019-01-14T07:47:31.659Z,4.60
2019-01-14T07:50:00.127Z,4.70
2019-01-14T07:52:28.728Z,4.60
2019-01-14T07:54:57.183Z,4.60
2019-01-14T07:57:25.658Z,4.70
2019-01-14T07:59:54.129Z,4.50
2019-01-14T08:02:22.635Z,4.60
2019-01-14T08:04:51.210Z,4.50
2019-01-14T08:07:19.688Z,4.40
2019-01-14T08:09:48.154Z,4.30
2019-01-14T08:12:16.688Z,4.40
2019-01-14T08:14:45.280Z,4.50
2019-01-14T08:17:13.709Z,4.50
2019-01-14T08:19:42.167Z,4.40
2019-01-14T08:22:10.688Z,4.40
2019-01-14T08:24:39.149Z,4.50
2019-01-14T08:27:07.758Z,4.60
2019-01-14T08:29:36.226Z,4.70
2019-01-14T08:32:04.872Z,4.70
2019-01-14T08:34:33.598Z,4.60
2019-01-14T08:37:02.052Z,4.50
2019-01-14T08:39:30.484Z,4.60
2019-01-14T08:42:00.594Z,4.40
2019-01-14T08:44:30.685Z,4.40
2019-01-14T08:46:59.196Z,4.50
2019-01-14T08:49:27.649Z,4.50
2019-01-14T08:51:56.100Z,4.40
2019-01-14T08:54:24.544Z,4.40
2019-01-14T08:56:53.011Z,4.30
2019-01-14T08:59:21.460Z,4.40
2019-01-14T09:01:49.991Z,4.40
2019-01-14T09:04:22.596Z,4.40
2019-01-14T09:06:48.662Z,4.60
2019-01-14T09:09:17.297Z,4.40
2019-01-14T09:11:45.744Z,4.50
2019-01-14T09:14:14.189Z,4.50
2019-01-14T09:16:42.643Z,4.40
2019-01-14T09:19:11.143Z,4.40
2019-01-14T09:21:39.633Z,4.40
2019-01-14T09:24:08.066Z,4.30
2019-01-14T09:26:36.527Z,4.20
2019-01-14T09:29:05.039Z,4.20
2019-01-14T09:31:33.564Z,4.30
2019-01-14T09:34:03.767Z,4.20
2019-01-14T09:36:32.311Z,4.40
2019-01-14T09:39:00.750Z,4.30
2019-01-14T09:41:29.213Z,4.30
2019-01-14T09:43:57.647Z,4.20
2019-01-14T09:46:26.130Z,4.30
2019-01-14T09:48:54.571Z,4.30
2019-01-14T09:51:23.017Z,4.20
2019-01-14T09:53:51.613Z,4.20
2019-01-14T09:56:20.093Z,4.20
2019-01-14T09:58:48.549Z,4.40
2019-01-14T10:01:17.061Z,4.30
2019-01-14T10:03:45.522Z,4.40
2019-01-14T10:06:13.959Z,4.50
2019-01-14T10:08:43.198Z,4.40
2019-01-14T10:11:13.380Z,4.40
2019-01-14T10:13:41.849Z,4.30
2019-01-14T10:16:10.296Z,3.90
2019-01-14T10:18:38.908Z,4.00
2019-01-14T10:21:07.437Z,4.00
2019-01-14T10:23:35.938Z,4.00
2019-01-14T10:26:04.866Z,4.30
2019-01-14T10:28:33.316Z,4.60
2019-01-14T10:31:01.868Z,4.80
2019-01-14T10:33:30.315Z,4.80
2019-01-14T10:35:58.766Z,4.70
2019-01-14T10:38:27.203Z,4.80
2019-01-14T10:40:55.659Z,4.90
2019-01-14T10:43:24.186Z,5.10
2019-01-14T10:45:52.756Z,5.20
2019-01-14T10:48:21.237Z,5.10
2019-01-14T10:50:49.684Z,5.20
2019-01-14T10:53:18.226Z,5.40
2019-01-14T10:55:46.655Z,5.70
2019-01-14T10:58:15.230Z,5.60
2019-01-14T11:00:43.650Z,5.30
2019-01-14T11:03:12.197Z,5.20
2019-01-14T11:05:40.666Z,5.00
2019-01-14T11:08:09.282Z,4.90
2019-01-14T11:10:37.793Z,5.00
2019-01-14T11:13:06.400Z,5.00
2019-01-14T11:15:35.055Z,5.00
2019-01-14T11:18:03.526Z,5.10
2019-01-14T11:20:32.222Z,5.10
2019-01-14T11:23:00.773Z,5.00
2019-01-14T11:25:29.351Z,5.30
2019-01-14T11:27:58.521Z,5.30
2019-01-14T11:30:29.011Z,5.10
2019-01-14T11:32:57.457Z,4.90
2019-01-14T11:35:26.173Z,4.90
2019-01-14T11:37:54.794Z,4.80
2019-01-14T11:40:28.636Z,4.80
2019-01-14T11:42:57.077Z,4.90
2019-01-14T11:45:25.541Z,4.90
2019-01-14T11:47:53.987Z,4.90
2019-01-14T11:50:22.462Z,4.90
2019-01-14T11:52:50.886Z,4.90
2019-01-14T11:55:19.343Z,4.70
2019-01-14T11:57:48.905Z,4.70
2019-01-14T12:00:22.326Z,4.70
2019-01-14T12:02:50.917Z,4.80
2019-01-14T12:05:19.438Z,4.70
2019-01-14T12:07:47.946Z,4.90
2019-01-14T12:10:16.469Z,5.00
2019-01-14T12:12:45.056Z,4.70
2019-01-14T12:15:16.596Z,4.60
2019-01-14T12:17:45.018Z,4.80
2019-01-14T12:20:14.928Z,5.00
2019-01-14T12:22:43.710Z,5.00
2019-01-14T12:25:12.488Z,5.10
2019-01-14T12:27:40.929Z,5.30
2019-01-14T12:30:12.479Z,5.00
2019-01-14T12:32:40.923Z,4.70
2019-01-14T12:35:09.374Z,4.50
2019-01-14T12:37:37.806Z,3.90
2019-01-14T12:40:09.693Z,2.40
2019-01-14T12:42:38.263Z,1.90
2019-01-14T12:45:09.650Z,1.70
2019-01-14T12:47:38.163Z,1.80
2019-01-14T12:50:10.060Z,1.90
2019-01-14T12:52:38.647Z,2.20
2019-01-14T12:55:09.459Z,2.10
2019-01-14T12:57:39.470Z,2.30
2019-01-14T13:00:12.009Z,2.30
2019-01-14T13:02:40.439Z,2.60
2019-01-14T13:05:10.423Z,2.60
2019-01-14T13:07:38.875Z,2.80
2019-01-14T13:10:10.591Z,2.80
2019-01-14T13:12:39.151Z,2.90
2019-01-14T13:15:13.489Z,3.70
2019-01-14T13:17:42.053Z,5.10
2019-01-14T13:20:12.922Z,6.00
2019-01-14T13:22:41.396Z,5.70
2019-01-14T13:25:09.980Z,5.70
2019-01-14T13:27:38.577Z,5.50
2019-01-14T13:30:21.611Z,4.50
2019-01-14T13:32:50.209Z,4.20
2019-01-14T13:35:18.667Z,3.30
2019-01-14T13:37:47.233Z,2.70
2019-01-14T13:40:15.994Z,2.30
2019-01-14T13:42:44.547Z,2.20
2019-01-14T13:45:18.423Z,2.00
2019-01-14T13:47:47.243Z,2.00
2019-01-14T13:50:18.085Z,1.90
2019-01-14T13:52:46.747Z,1.90
2019-01-14T13:55:15.423Z,1.70
2019-01-14T13:57:43.965Z,1.50
2019-01-14T14:00:15.422Z,1.50
2019-01-14T14:02:43.988Z,1.40
2019-01-14T14:05:12.688Z,1.60
2019-01-14T14:07:41.136Z,1.40
2019-01-14T14:10:21.530Z,1.40
2019-01-14T14:12:50.060Z,1.30
2019-01-14T14:15:19.249Z,1.10
2019-01-14T14:17:47.898Z,1.00
2019-01-14T14:20:17.762Z,1.00
2019-01-14T14:22:46.232Z,0.90
2019-01-14T14:25:14.806Z,1.00
2019-01-14T14:27:43.274Z,1.10
2019-01-14T14:30:20.214Z,1.00
2019-01-14T14:32:48.743Z,1.00
2019-01-14T14:35:17.338Z,0.90
2019-01-14T14:37:45.798Z,1.00
2019-01-14T14:40:14.496Z,1.00
2019-01-14T14:42:42.946Z,1.10
2019-01-14T14:45:13.813Z,1.20
2019-01-14T14:47:43.411Z,1.30
2019-01-14T14:50:18.835Z,1.40
2019-01-14T14:52:47.478Z,1.40
2019-01-14T14:55:16.015Z,1.60
2019-01-14T14:57:44.627Z,1.40
2019-01-14T15:00:18.775Z,1.50
2019-01-14T15:02:47.374Z,1.40
2019-01-14T15:05:16.083Z,1.60
2019-01-14T15:07:44.626Z,1.50
2019-01-14T15:10:18.161Z,1.50
2019-01-14T15:12:46.751Z,1.60
2019-01-14T15:15:17.103Z,1.70
2019-01-14T15:17:45.791Z,1.50
2019-01-14T15:20:16.602Z,1.60
2019-01-14T15:22:45.113Z,1.60
2019-01-14T15:25:14.111Z,1.40
2019-01-14T15:27:42.622Z,1.30
2019-01-14T15:30:16.871Z,1.50
2019-01-14T15:32:45.319Z,1.40
2019-01-14T15:35:14.421Z,1.40
2019-01-14T15:37:42.932Z,1.40
2019-01-14T15:40:16.878Z,1.30
2019-01-14T15:42:45.494Z,1.20
2019-01-14T15:45:16.086Z,1.30
2019-01-14T15:47:44.537Z,1.50
2019-01-14T15:50:13.251Z,1.30
2019-01-14T15:52:41.775Z,1.40
2019-01-14T15:55:13.462Z,1.50
2019-01-14T15:57:41.922Z,1.40
2019-01-14T16:00:13.193Z,1.20
2019-01-14T16:02:41.655Z,1.10
2019-01-14T16:05:10.174Z,1.20
2019-01-14T16:07:38.712Z,1.30
2019-01-14T16:10:10.967Z,1.10
2019-01-14T16:12:39.517Z,1.20
2019-01-14T16:15:09.410Z,1.30
2019-01-14T16:17:37.849Z,1.30
2019-01-14T16:20:09.606Z,1.20
2019-01-14T16:22:38.201Z,1.30
2019-01-14T16:25:07.170Z,1.30
2019-01-14T16:27:37.305Z,1.20
2019-01-14T16:30:09.079Z,1.30
2019-01-14T16:32:37.546Z,1.20
2019-01-14T16:35:06.845Z,1.20
2019-01-14T16:37:35.508Z,1.10
2019-01-14T16:40:05.378Z,1.10
2019-01-14T16:42:33.864Z,0.90
2019-01-14T16:45:02.308Z,0.90
2019-01-14T16:47:32.018Z,1.00
2019-01-14T16:50:00.536Z,1.00
2019-01-14T16:52:29.054Z,1.10
2019-01-14T16:54:58.096Z,1.10
2019-01-14T16:57:26.704Z,1.00
2019-01-14T16:59:55.145Z,0.90
2019-01-14T17:02:23.632Z,0.90
2019-01-14T17:04:52.143Z,0.90
2019-01-14T17:07:20.603Z,0.90
2019-01-14T17:09:49.036Z,1.00
2019-01-14T17:12:17.518Z,1.00
2019-01-14T17:14:46.047Z,0.90
2019-01-14T17:17:14.521Z,0.90
2019-01-14T17:19:44.491Z,1.10
2019-01-14T17:22:13.118Z,1.10
2019-01-14T17:24:41.568Z,1.00
2019-01-14T17:27:10.011Z,1.10
2019-01-14T17:29:38.502Z,1.00
2019-01-14T17:32:06.955Z,1.00
2019-01-14T17:34:35.496Z,1.00
2019-01-14T17:37:04.021Z,1.00
2019-01-14T17:39:32.621Z,1.10
2019-01-14T17:42:01.243Z,1.00
2019-01-14T17:44:29.780Z,1.00
2019-01-14T17:46:58.269Z,0.90
2019-01-14T17:49:26.735Z,1.00
2019-01-14T17:51:55.255Z,0.90
2019-01-14T17:54:23.735Z,0.90
2019-01-14T17:56:52.520Z,0.90
2019-01-14T17:59:22.542Z,1.10
2019-01-14T18:01:51.333Z,0.90
2019-01-14T18:04:19.799Z,1.10
2019-01-14T18:06:48.377Z,1.00
2019-01-14T18:09:17.323Z,0.90
2019-01-14T18:11:45.782Z,0.90
2019-01-14T18:14:14.306Z,1.00
2019-01-14T18:16:42.840Z,1.00
2019-01-14T18:19:11.367Z,1.10
2019-01-14T18:21:39.939Z,1.30
2019-01-14T18:24:08.396Z,1.40
2019-01-14T18:26:36.943Z,1.40
2019-01-14T18:29:05.526Z,1.40
2019-01-14T18:31:33.975Z,1.50
2019-01-14T18:34:02.440Z,1.40
2019-01-14T18:36:30.878Z,1.30
2019-01-14T18:38:59.360Z,1.30
2019-01-14T18:41:27.816Z,1.30
2019-01-14T18:43:57.106Z,1.20
2019-01-14T18:46:25.554Z,1.10
2019-01-14T18:48:53.998Z,1.10
2019-01-14T18:51:22.455Z,1.10
2019-01-14T18:53:51.045Z,1.10
2019-01-14T18:56:19.609Z,1.00
2019-01-14T18:58:48.096Z,1.10
2019-01-14T19:01:16.591Z,1.00
2019-01-14T19:03:45.114Z,1.10
2019-01-14T19:06:13.726Z,1.00
2019-01-14T19:08:42.189Z,1.10
2019-01-14T19:11:10.650Z,1.10
2019-01-14T19:13:39.082Z,1.00
2019-01-14T19:16:07.607Z,1.10
2019-01-14T19:18:36.062Z,1.00
2019-01-14T19:21:04.507Z,1.10
2019-01-14T19:23:33.027Z,0.90
2019-01-14T19:26:01.490Z,1.10
2019-01-14T19:28:29.956Z,1.00
2019-01-14T19:30:58.485Z,1.10
2019-01-14T19:33:26.922Z,1.00
2019-01-14T19:35:55.536Z,1.10
2019-01-14T19:38:23.985Z,1.10
2019-01-14T19:40:52.460Z,1.20
2019-01-14T19:43:21.071Z,1.20
2019-01-14T19:45:50.094Z,1.30
2019-01-14T19:48:18.609Z,1.20
2019-01-14T19:50:47.679Z,1.20
2019-01-14T19:53:16.204Z,1.20
2019-01-14T19:55:44.655Z,1.10
2019-01-14T19:58:13.101Z,1.10
2019-01-14T20:00:41.709Z,1.10
2019-01-14T20:03:10.152Z,1.10
2019-01-14T20:05:38.589Z,1.30
2019-01-14T20:08:07.409Z,1.10
2019-01-14T20:10:35.914Z,1.10
2019-01-14T20:13:04.360Z,1.00
2019-01-14T20:15:32.818Z,1.00
2019-01-14T20:18:01.289Z,1.10
2019-01-14T20:20:29.733Z,1.10
2019-01-14T20:22:58.563Z,1.00
2019-01-14T20:25:27.135Z,0.90
2019-01-14T20:27:55.733Z,0.90
2019-01-14T20:30:24.372Z,0.90
2019-01-14T20:32:52.904Z,0.90
2019-01-14T20:35:21.348Z,1.00
2019-01-14T20:37:49.798Z,1.10
2019-01-14T20:40:18.254Z,1.00
2019-01-14T20:42:47.211Z,1.00
2019-01-14T20:45:16.982Z,1.00
2019-01-14T20:47:45.440Z,1.00
2019-01-14T20:50:15.939Z,1.00
2019-01-14T20:52:44.623Z,1.10
2019-01-14T20:55:13.313Z,1.00
2019-01-14T20:57:41.961Z,1.00
2019-01-14T21:00:19.575Z,1.10
2019-01-14T21:02:48.144Z,0.90
2019-01-14T21:05:17.572Z,1.10
2019-01-14T21:07:46.081Z,0.90
2019-01-14T21:10:15.779Z,1.00
2019-01-14T21:12:44.413Z,0.90
2019-01-14T21:15:13.277Z,1.00
2019-01-14T21:17:41.879Z,0.90
2019-01-14T21:20:13.699Z,0.90
2019-01-14T21:22:42.141Z,1.10
2019-01-14T21:25:10.931Z,1.10
2019-01-14T21:27:39.373Z,1.20
2019-01-14T21:30:13.836Z,1.20
2019-01-14T21:32:42.419Z,1.30
2019-01-14T21:35:10.903Z,1.30
2019-01-14T21:37:39.441Z,1.50
2019-01-14T21:40:10.507Z,1.50
2019-01-14T21:42:39.029Z,1.60
2019-01-14T21:45:10.519Z,1.70
2019-01-14T21:47:39.023Z,1.80
2019-01-14T21:50:10.506Z,1.70
2019-01-14T21:52:39.041Z,1.70
2019-01-14T21:55:10.430Z,1.60
2019-01-14T21:57:38.868Z,1.70
2019-01-14T22:00:10.561Z,1.70
2019-01-14T22:02:39.002Z,1.70
2019-01-14T22:05:07.552Z,1.80
2019-01-14T22:07:36.458Z,1.70
2019-01-14T22:10:07.990Z,1.90
2019-01-14T22:12:36.437Z,1.80
2019-01-14T22:15:07.534Z,1.90
2019-01-14T22:17:35.969Z,1.70
2019-01-14T22:20:10.689Z,1.80
2019-01-14T22:22:39.149Z,1.80
2019-01-14T22:25:08.538Z,1.70
2019-01-14T22:27:37.028Z,1.90
2019-01-14T22:30:08.568Z,1.80
2019-01-14T22:32:37.026Z,1.70
2019-01-14T22:35:06.114Z,1.90
2019-01-14T22:37:34.550Z,1.90
2019-01-14T22:40:04.934Z,2.00
2019-01-14T22:42:33.386Z,2.20
2019-01-14T22:45:01.812Z,2.10
2019-01-14T22:47:30.279Z,2.10
2019-01-14T22:49:58.787Z,2.20
2019-01-14T22:52:27.312Z,2.10
2019-01-14T22:54:55.753Z,2.10
2019-01-14T22:57:31.344Z,2.10
2019-01-14T22:59:59.972Z,2.00
2019-01-14T23:02:28.739Z,2.00
2019-01-14T23:04:57.183Z,2.00
2019-01-14T23:07:25.635Z,2.00
2019-01-14T23:09:54.088Z,1.90
2019-01-14T23:12:22.603Z,1.90
2019-01-14T23:14:51.050Z,2.20
2019-01-14T23:17:19.575Z,2.20
2019-01-14T23:19:48.091Z,2.10
2019-01-14T23:22:16.565Z,2.20
2019-01-14T23:24:45.006Z,2.30
2019-01-14T23:27:13.459Z,2.20
2019-01-14T23:29:41.909Z,2.30
2019-01-14T23:32:10.355Z,2.10
2019-01-14T23:34:38.802Z,2.20
2019-01-14T23:37:07.249Z,2.20
2019-01-14T23:39:35.693Z,2.10
2019-01-14T23:42:04.760Z,2.20
2019-01-14T23:44:33.275Z,2.10
2019-01-14T23:47:01.805Z,2.30
2019-01-14T23:49:30.319Z,2.20
2019-01-14T23:51:58.855Z,2.10
2019-01-14T23:54:27.295Z,2.10
2019-01-14T23:56:55.831Z,1.90
2019-01-14T23:59:24.275Z,2.10
